Time;durP1;ratioP1;P1;durP2;ratioP2;P2;SDS_P1;SDS_P2;PMS_P1;PMS_P2;Temp;Humidity;BMP_temperature;BMP_pressure;BME280_temperature;BME280_humidity;BME280_pressure;Samples;Min_cycle;Max_cycle;Signal;HPM_P1;HPM_P2
2022/05/10 00:01:58;;;;;;;17.00;15.40;;;15.80;99.90;;;;;;2611884;54;20916;-83
2022/05/10 00:04:24;;;;;;;16.07;14.70;;;15.70;99.90;;;;;;2613354;54;20427;-83
2022/05/10 00:06:51;;;;;;;16.33;14.63;;;15.60;99.90;;;;;;2613024;54;20407;-75
2022/05/10 00:09:22;;;;;;;16.23;14.63;;;15.60;99.90;;;;;;2611799;39;20494;-76
2022/05/10 00:11:48;;;;;;;17.10;15.30;;;15.80;99.90;;;;;;2611298;54;20396;-74
2022/05/10 00:14:15;;;;;;;16.63;15.00;;;15.80;99.90;;;;;;2610247;54;20408;-73
2022/05/10 00:16:43;;;;;;;17.43;15.07;;;15.70;99.90;;;;;;2611830;47;20478;-74
2022/05/10 00:19:13;;;;;;;16.53;14.50;;;15.70;99.90;;;;;;2611871;47;20395;-74
2022/05/10 00:21:42;;;;;;;17.47;15.87;;;15.70;99.90;;;;;;2612467;47;20868;-74
2022/05/10 00:24:08;;;;;;;15.53;14.17;;;15.70;99.90;;;;;;2612841;39;20456;-74
2022/05/10 00:26:34;;;;;;;16.83;15.27;;;15.60;99.90;;;;;;2611995;54;20436;-73
2022/05/10 00:29:01;;;;;;;17.07;15.43;;;15.50;99.90;;;;;;2613148;47;21142;-83
2022/05/10 00:31:28;;;;;;;15.07;13.67;;;15.60;99.90;;;;;;2614077;54;20407;-83
2022/05/10 00:33:54;;;;;;;14.63;13.27;;;15.60;99.90;;;;;;2612684;54;20543;-77
2022/05/10 00:36:23;;;;;;;14.97;13.63;;;15.40;99.90;;;;;;2612598;54;20388;-77
2022/05/10 00:38:49;;;;;;;15.00;13.60;;;15.40;99.90;;;;;;2615833;54;20396;-84
2022/05/10 00:41:33;;;;;;;14.87;13.47;;;15.30;99.90;;;;;;2615077;54;20401;-83
2022/05/10 00:44:14;;;;;;;15.40;13.90;;;15.30;99.90;;;;;;2612871;54;20423;-76
2022/05/10 00:46:59;;;;;;;16.53;14.90;;;15.40;99.90;;;;;;2612151;39;20493;-76
2022/05/10 00:49:53;;;;;;;14.23;12.93;;;15.30;99.90;;;;;;2613076;47;20407;-82
2022/05/10 00:52:43;;;;;;;14.10;12.90;;;15.40;99.90;;;;;;2613610;54;20387;-82
2022/05/10 00:55:19;;;;;;;16.33;12.17;;;15.40;99.90;;;;;;2614756;39;20782;-83
2022/05/10 00:58:03;;;;;;;14.20;12.70;;;15.30;99.90;;;;;;2613083;54;20405;-73
2022/05/10 01:00:31;;;;;;;15.07;13.60;;;15.30;99.90;;;;;;2612545;31;20844;-73
2022/05/10 01:03:22;;;;;;;13.03;11.93;;;15.30;99.90;;;;;;2612428;54;20432;-75
2022/05/10 01:05:56;;;;;;;13.53;12.33;;;15.40;99.90;;;;;;2612815;54;20380;-75
2022/05/10 01:08:37;;;;;;;12.20;11.10;;;15.50;99.90;;;;;;2612770;54;20422;-73
2022/05/10 01:11:19;;;;;;;12.30;11.23;;;15.50;99.90;;;;;;2611808;54;21164;-73
2022/05/10 01:14:16;;;;;;;12.47;11.37;;;15.50;99.90;;;;;;2612802;54;20419;-82
2022/05/10 01:16:42;;;;;;;12.03;11.10;;;15.60;99.90;;;;;;2613793;54;21281;-82
2022/05/10 01:19:09;;;;;;;11.33;10.40;;;15.70;99.90;;;;;;2613964;54;20492;-82
2022/05/10 01:22:05;;;;;;;12.70;10.60;;;15.70;99.90;;;;;;2613635;47;20438;-82
2022/05/10 01:24:41;;;;;;;10.83;9.83;;;15.70;99.90;;;;;;2612171;54;20417;-76
2022/05/10 01:27:37;;;;;;;11.57;10.57;;;15.80;99.90;;;;;;2612473;54;20483;-79
2022/05/10 01:30:14;;;;;;;12.10;11.00;;;15.70;99.90;;;;;;2612499;54;20392;-76
2022/05/10 01:35:34;;;;;;;15.43;10.37;;;15.60;99.90;;;;;;2614243;54;20388;-82
2022/05/10 01:38:07;;;;;;;11.30;10.30;;;15.60;99.90;;;;;;2613872;54;20511;-79
2022/05/10 01:40:38;;;;;;;12.30;11.00;;;15.70;99.90;;;;;;2612192;54;20544;-80
2022/05/10 01:43:22;;;;;;;11.73;10.63;;;15.70;99.90;;;;;;2613029;54;20376;-79
2022/05/10 01:46:12;;;;;;;10.33;9.37;;;15.60;99.90;;;;;;2612615;39;20787;-79
2022/05/10 01:48:40;;;;;;;12.10;9.90;;;15.70;99.90;;;;;;2611972;54;20408;-73
2022/05/10 01:51:19;;;;;;;10.10;9.20;;;15.60;99.90;;;;;;2612201;39;20504;-73
2022/05/10 01:53:45;;;;;;;11.00;9.73;;;15.60;99.90;;;;;;2612062;46;21145;-76
2022/05/10 01:56:38;;;;;;;11.53;10.33;;;15.90;98.10;;;;;;2611694;54;20422;-76
2022/05/10 01:59:04;;;;;;;11.07;10.17;;;15.80;99.10;;;;;;2610889;54;20405;-76
2022/05/10 02:01:34;;;;;;;13.97;9.50;;;15.80;98.10;;;;;;2611941;54;20400;-75
2022/05/10 02:04:04;;;;;;;10.87;9.70;;;15.70;97.80;;;;;;2613201;54;20599;-75
2022/05/10 02:06:49;;;;;;;10.17;9.20;;;15.80;98.50;;;;;;2611060;54;20408;-76
2022/05/10 02:09:25;;;;;;;11.30;10.20;;;15.80;98.30;;;;;;2610216;54;20467;-76
2022/05/10 02:11:59;;;;;;;10.10;9.40;;;15.70;98.90;;;;;;2611476;54;20403;-73
2022/05/10 02:14:38;;;;;;;9.57;8.77;;;15.70;98.30;;;;;;2610480;54;20447;-74
2022/05/10 02:17:12;;;;;;;11.90;9.70;;;15.80;98.00;;;;;;2609925;54;20395;-79
2022/05/10 02:19:56;;;;;;;10.37;9.47;;;15.70;99.10;;;;;;2611485;47;20483;-79
2022/05/10 02:22:43;;;;;;;10.33;9.30;;;15.70;98.30;;;;;;2611558;54;20400;-79
2022/05/10 02:25:16;;;;;;;12.80;10.87;;;15.70;98.60;;;;;;2610806;54;20399;-79
2022/05/10 02:27:48;;;;;;;10.63;9.63;;;15.70;99.60;;;;;;2609984;54;20483;-76
2022/05/10 02:30:20;;;;;;;10.87;10.07;;;15.70;99.90;;;;;;2609329;54;21284;-77
2022/05/10 02:33:07;;;;;;;10.03;9.23;;;15.70;99.90;;;;;;2611608;39;20880;-77
2022/05/10 02:36:08;;;;;;;12.40;10.40;;;15.60;99.90;;;;;;2611364;54;20391;-77
2022/05/10 02:38:37;;;;;;;10.37;9.37;;;15.80;99.90;;;;;;2611156;54;20450;-79
2022/05/10 02:41:09;;;;;;;10.97;10.07;;;15.70;99.40;;;;;;2611632;54;20397;-77
2022/05/10 02:43:46;;;;;;;17.03;10.30;;;15.70;99.90;;;;;;2612158;54;20443;-79
2022/05/10 02:46:12;;;;;;;9.67;8.90;;;15.60;99.90;;;;;;2611034;54;20403;-79
2022/05/10 02:48:38;;;;;;;11.00;10.10;;;15.40;99.90;;;;;;2612405;54;20404;-82
2022/05/10 02:51:05;;;;;;;11.87;10.73;;;15.20;99.90;;;;;;2612864;39;20798;-81
2022/05/10 02:53:31;;;;;;;10.93;10.03;;;15.10;99.90;;;;;;2612143;54;20434;-76
2022/05/10 02:56:07;;;;;;;11.63;10.57;;;15.20;99.90;;;;;;2612748;54;21019;-75
2022/05/10 02:58:40;;;;;;;12.10;10.90;;;15.30;99.90;;;;;;2611577;54;20391;-75
2022/05/10 03:01:33;;;;;;;12.60;10.03;;;15.20;99.90;;;;;;2611164;54;20387;-76
2022/05/10 03:04:00;;;;;;;12.27;11.23;;;15.10;99.90;;;;;;2611801;54;20423;-79
2022/05/10 03:06:28;;;;;;;11.80;10.70;;;15.10;99.90;;;;;;2613287;31;20882;-79
2022/05/10 03:08:55;;;;;;;10.60;9.80;;;15.20;99.90;;;;;;2611462;54;20475;-79
2022/05/10 03:11:22;;;;;;;11.60;10.47;;;15.20;99.90;;;;;;2610710;47;20418;-80
2022/05/10 03:13:48;;;;;;;10.50;9.50;;;15.20;99.90;;;;;;2612601;54;20449;-76
2022/05/10 03:16:16;;;;;;;11.77;10.60;;;15.20;99.90;;;;;;2611839;54;20419;-77
2022/05/10 03:18:46;;;;;;;11.93;11.00;;;15.20;99.90;;;;;;2611995;54;20960;-78
2022/05/10 03:21:12;;;;;;;13.37;10.20;;;15.20;99.90;;;;;;2612849;54;20391;-81
2022/05/10 03:23:39;;;;;;;12.73;10.63;;;15.20;99.90;;;;;;2611861;54;20410;-75
2022/05/10 03:26:05;;;;;;;12.50;11.30;;;15.20;99.90;;;;;;2611473;54;20413;-75
2022/05/10 03:28:36;;;;;;;11.07;10.10;;;15.20;99.90;;;;;;2611045;47;20411;-82
2022/05/10 03:31:07;;;;;;;11.47;9.73;;;15.20;99.90;;;;;;2611961;54;20418;-83
2022/05/10 03:33:33;;;;;;;10.60;9.80;;;15.30;99.90;;;;;;2613171;54;20421;-74
2022/05/10 03:35:59;;;;;;;9.93;9.13;;;15.40;99.90;;;;;;2610975;54;20376;-74
2022/05/10 03:38:25;;;;;;;9.80;8.80;;;15.50;99.90;;;;;;2610303;54;20991;-76
2022/05/10 03:40:51;;;;;;;10.57;9.77;;;15.50;99.90;;;;;;2609432;54;20148;-76
2022/05/10 03:43:17;;;;;;;10.03;8.93;;;15.60;99.90;;;;;;2611790;39;20493;-76
2022/05/10 03:45:43;;;;;;;11.50;10.40;;;15.60;99.40;;;;;;2611283;54;20402;-76
2022/05/10 03:48:09;;;;;;;11.23;10.00;;;15.70;97.90;;;;;;2612271;47;20186;-76
2022/05/10 03:50:35;;;;;;;10.73;9.70;;;15.60;98.40;;;;;;2611110;54;20695;-76
2022/05/10 03:53:01;;;;;;;10.23;9.37;;;15.60;98.20;;;;;;2611090;54;20412;-76
2022/05/10 03:55:28;;;;;;;10.60;9.70;;;15.70;97.70;;;;;;2610912;54;20411;-74
2022/05/10 03:57:55;;;;;;;9.97;9.07;;;15.70;98.10;;;;;;2611975;54;20490;-75
2022/05/10 04:00:26;;;;;;;10.90;9.13;;;15.70;96.50;;;;;;2611579;54;20403;-79
2022/05/10 04:02:53;;;;;;;12.13;10.47;;;15.70;96.20;;;;;;2612221;54;20400;-78
2022/05/10 04:05:19;;;;;;;11.13;10.00;;;15.70;95.90;;;;;;2611927;54;20406;-77
2022/05/10 04:07:45;;;;;;;9.60;8.80;;;15.90;95.20;;;;;;2610271;54;20385;-76
2022/05/10 04:10:13;;;;;;;9.23;8.40;;;15.90;94.80;;;;;;2611062;54;20428;-80
2022/05/10 04:12:40;;;;;;;11.43;9.43;;;15.90;94.40;;;;;;2611622;47;20396;-80
2022/05/10 04:15:08;;;;;;;10.97;9.97;;;15.80;94.60;;;;;;2611402;54;20423;-79
2022/05/10 04:17:34;;;;;;;11.27;10.27;;;15.90;94.00;;;;;;2611388;46;20435;-79
2022/05/10 04:20:00;;;;;;;10.23;9.43;;;16.00;92.80;;;;;;2611695;54;20416;-80
2022/05/10 04:22:26;;;;;;;10.17;9.17;;;16.10;92.90;;;;;;2611861;54;20154;-80
2022/05/10 04:24:52;;;;;;;10.13;9.13;;;16.10;92.80;;;;;;2613440;39;21039;-74
2022/05/10 04:27:18;;;;;;;10.20;9.30;;;16.20;91.50;;;;;;2611542;54;20508;-74
2022/05/10 04:29:43;;;;;;;10.30;9.40;;;16.10;92.90;;;;;;2611068;54;20286;-76
2022/05/10 04:32:09;;;;;;;11.20;9.90;;;16.10;92.90;;;;;;2611967;39;21148;-77
2022/05/10 04:34:35;;;;;;;10.50;9.63;;;16.10;92.90;;;;;;2612118;54;20163;-74
2022/05/10 04:37:01;;;;;;;10.73;9.73;;;16.00;94.40;;;;;;2611856;47;20154;-73
2022/05/10 04:41:24;;;;;;;12.37;11.10;;;15.90;95.00;;;;;;2612673;54;20162;-77
2022/05/10 04:42:15;;;;;;;11.23;9.60;;;15.90;95.60;;;;;;2613699;54;20432;-77
2022/05/10 04:44:41;;;;;;;11.07;9.90;;;15.90;96.10;;;;;;2613714;54;20395;-79
2022/05/10 04:47:07;;;;;;;11.13;10.17;;;16.00;96.00;;;;;;2613075;54;20183;-79
2022/05/10 04:49:33;;;;;;;9.90;8.97;;;15.90;96.80;;;;;;2613524;54;20158;-76
2022/05/10 04:51:59;;;;;;;10.23;9.43;;;15.80;97.70;;;;;;2612613;54;20404;-75
2022/05/10 04:54:25;;;;;;;10.80;9.93;;;15.80;97.70;;;;;;2612117;54;20198;-77
2022/05/10 04:56:50;;;;;;;11.07;10.03;;;15.80;97.40;;;;;;2611807;54;20155;-75
2022/05/10 04:59:16;;;;;;;10.83;9.83;;;15.90;97.40;;;;;;2612152;54;20399;-75
2022/05/10 05:01:42;;;;;;;11.00;10.00;;;15.80;98.10;;;;;;2610139;46;20151;-76
2022/05/10 05:04:08;;;;;;;13.77;10.33;;;15.70;99.60;;;;;;2611969;54;20364;-75
2022/05/10 05:06:37;;;;;;;10.27;9.47;;;15.70;99.80;;;;;;2611385;54;20702;-77
2022/05/10 05:09:03;;;;;;;10.47;9.57;;;15.90;99.50;;;;;;2612920;54;20148;-77
2022/05/10 05:11:29;;;;;;;11.23;10.20;;;15.90;99.90;;;;;;2611524;47;20395;-77
2022/05/10 05:13:55;;;;;;;10.33;9.57;;;16.00;99.90;;;;;;2612317;54;20403;-76
2022/05/10 05:16:21;;;;;;;11.97;9.87;;;16.10;99.90;;;;;;2610895;54;20446;-75
2022/05/10 05:18:47;;;;;;;10.90;9.90;;;16.20;98.40;;;;;;2610356;54;20181;-73
2022/05/10 05:21:13;;;;;;;11.30;9.60;;;16.30;97.80;;;;;;2609020;54;20964;-74
2022/05/10 05:23:39;;;;;;;10.13;9.17;;;16.20;96.90;;;;;;2611161;54;20399;-79
2022/05/10 05:26:05;;;;;;;11.37;10.27;;;16.20;95.60;;;;;;2610100;54;20380;-77
2022/05/10 05:28:31;;;;;;;11.20;10.27;;;16.30;95.80;;;;;;2610640;54;20255;-78
2022/05/10 05:30:58;;;;;;;10.23;9.23;;;16.40;95.40;;;;;;2610326;54;20392;-78
2022/05/10 05:33:24;;;;;;;15.77;10.77;;;16.50;95.10;;;;;;2611935;54;20404;-75
2022/05/10 05:35:50;;;;;;;12.23;10.57;;;16.60;93.30;;;;;;2612260;54;20409;-74
2022/05/10 05:38:16;;;;;;;10.07;9.37;;;16.70;91.40;;;;;;2612049;54;20144;-78
2022/05/10 05:40:42;;;;;;;11.90;9.27;;;16.80;90.00;;;;;;2613202;54;20148;-79
2022/05/10 05:43:21;;;;;;;16.03;11.40;;;17.00;89.70;;;;;;2613136;54;20440;-79
2022/05/10 05:45:51;;;;;;;10.87;9.87;;;17.00;86.30;;;;;;2611187;54;20401;-75
2022/05/10 05:48:17;;;;;;;11.20;10.30;;;17.00;86.50;;;;;;2611789;54;20409;-79
2022/05/10 05:50:44;;;;;;;13.03;11.83;;;17.10;84.50;;;;;;2612156;54;20985;-78
2022/05/10 05:53:11;;;;;;;12.23;11.20;;;17.20;83.70;;;;;;2612347;54;20537;-79
2022/05/10 05:55:38;;;;;;;10.93;9.93;;;17.40;81.10;;;;;;2613109;54;20509;-78
2022/05/10 05:58:04;;;;;;;10.27;9.27;;;17.60;80.70;;;;;;2612344;54;20394;-77
2022/05/10 06:00:30;;;;;;;10.27;9.20;;;17.70;78.30;;;;;;2613637;39;20769;-78
2022/05/10 06:02:57;;;;;;;14.70;10.03;;;18.00;73.20;;;;;;2613201;54;20433;-77
2022/05/10 06:05:24;;;;;;;14.77;10.20;;;18.30;69.90;;;;;;2612424;47;20414;-78
2022/05/10 06:07:50;;;;;;;11.30;8.73;;;18.50;65.80;;;;;;2612990;54;20398;-78
2022/05/10 06:10:16;;;;;;;11.17;9.87;;;19.10;59.10;;;;;;2613021;54;20414;-83
2022/05/10 06:12:43;;;;;;;19.33;9.10;;;19.60;51.70;;;;;;2613338;47;20895;-83
2022/05/10 06:15:13;;;;;;;9.60;8.70;;;20.20;47.10;;;;;;2612956;54;20427;-83
2022/05/10 06:17:41;;;;;;;10.63;9.53;;;20.50;41.10;;;;;;2611518;54;20506;-85
2022/05/10 06:20:09;;;;;;;9.83;8.80;;;20.80;36.80;;;;;;2612579;54;20434;-79
2022/05/10 06:22:37;;;;;;;10.00;9.10;;;21.00;34.60;;;;;;2613122;54;20411;-78
2022/05/10 06:25:05;;;;;;;8.70;8.00;;;21.10;31.40;;;;;;2612190;47;20503;-80
2022/05/10 06:27:31;;;;;;;11.60;9.40;;;20.40;35.50;;;;;;2614067;54;20403;-80
2022/05/10 06:29:58;;;;;;;10.70;9.80;;;19.80;40.60;;;;;;2613633;47;20476;-81
2022/05/10 06:32:26;;;;;;;10.00;9.20;;;19.50;44.30;;;;;;2614162;54;20381;-82
2022/05/10 06:34:53;;;;;;;10.33;9.00;;;19.40;47.10;;;;;;2612921;39;20901;-74
2022/05/10 06:40:11;;;;;;;11.40;10.20;;;19.40;47.70;;;;;;2611724;54;20402;-76
2022/05/10 06:42:38;;;;;;;10.50;9.53;;;19.40;48.30;;;;;;2611469;54;20414;-76
2022/05/10 06:45:09;;;;;;;12.47;11.07;;;19.30;49.80;;;;;;2612139;54;20432;-79
2022/05/10 06:47:40;;;;;;;10.87;9.80;;;19.30;51.20;;;;;;2611949;47;20398;-77
2022/05/10 06:50:08;;;;;;;10.50;9.60;;;19.40;49.90;;;;;;2612083;54;20401;-77
2022/05/10 06:52:34;;;;;;;9.90;8.93;;;19.60;49.50;;;;;;2612252;54;20429;-75
2022/05/10 06:55:01;;;;;;;9.63;8.80;;;19.70;48.40;;;;;;2613769;39;20761;-83
2022/05/10 06:57:27;;;;;;;19.13;10.80;;;19.80;49.60;;;;;;2615401;46;20390;-82
2022/05/10 06:59:54;;;;;;;11.03;10.07;;;20.10;47.20;;;;;;2614562;54;20420;-76
2022/05/10 07:02:21;;;;;;;9.97;8.83;;;20.20;45.20;;;;;;2613305;54;20192;-77
2022/05/10 07:04:47;;;;;;;11.13;10.23;;;20.40;45.10;;;;;;2616858;54;20401;-78
2022/05/10 07:07:13;;;;;;;10.07;9.10;;;20.70;44.10;;;;;;2621261;54;20399;-81
2022/05/10 07:09:39;;;;;;;11.10;10.10;;;21.00;42.10;;;;;;2616035;47;20181;-81
2022/05/10 07:12:06;;;;;;;14.63;9.40;;;21.40;38.20;;;;;;2614247;54;21006;-81
2022/05/10 07:14:32;;;;;;;11.47;8.83;;;21.80;34.40;;;;;;2613311;54;20418;-82
2022/05/10 07:16:58;;;;;;;10.30;8.67;;;22.20;31.60;;;;;;2612934;54;20420;-82
2022/05/10 07:19:24;;;;;;;9.67;8.73;;;22.40;29.80;;;;;;2611749;54;20383;-80
2022/05/10 07:21:50;;;;;;;9.30;8.40;;;22.70;28.20;;;;;;2613335;54;20766;-79
2022/05/10 07:24:19;;;;;;;9.27;8.57;;;22.70;27.60;;;;;;2611891;39;20580;-79
2022/05/10 07:26:48;;;;;;;8.40;7.80;;;22.70;26.40;;;;;;2612756;54;20396;-80
2022/05/10 07:29:15;;;;;;;9.50;8.80;;;22.90;24.70;;;;;;2612910;54;20514;-78
2022/05/10 07:31:43;;;;;;;12.30;7.37;;;22.80;23.90;;;;;;2610739;54;20392;-79
2022/05/10 07:34:10;;;;;;;9.43;8.63;;;23.00;21.30;;;;;;2614072;54;20422;-85
2022/05/10 07:36:36;;;;;;;9.43;8.60;;;23.10;18.40;;;;;;2613383;54;20437;-84
2022/05/10 07:39:07;;;;;;;9.23;8.43;;;23.30;17.50;;;;;;2614447;46;20410;-84
2022/05/10 07:41:33;;;;;;;8.97;8.27;;;23.10;17.20;;;;;;2612586;54;20407;-85
2022/05/10 07:44:00;;;;;;;8.33;7.73;;;23.30;15.90;;;;;;2614310;54;20372;-81
2022/05/10 07:46:26;;;;;;;9.90;8.83;;;23.80;13.40;;;;;;2612429;39;20772;-81
2022/05/10 07:48:52;;;;;;;8.70;8.03;;;23.90;11.80;;;;;;2613913;54;20399;-80
2022/05/10 07:51:19;;;;;;;9.53;8.63;;;24.20;11.00;;;;;;2613491;54;20394;-82
2022/05/10 07:53:46;;;;;;;12.33;8.17;;;24.40;9.20;;;;;;2612684;54;20510;-79
2022/05/10 07:56:15;;;;;;;8.20;7.47;;;24.50;8.60;;;;;;2612486;39;20763;-80
2022/05/10 07:58:41;;;;;;;13.93;8.63;;;24.90;5.30;;;;;;2613705;54;20415;-84
2022/05/10 08:01:07;;;;;;;8.40;7.67;;;25.10;2.30;;;;;;2615554;54;20388;-83
2022/05/10 08:03:34;;;;;;;10.27;7.70;;;25.20;2.60;;;;;;2615115;54;20559;-77
2022/05/10 08:06:00;;;;;;;8.77;7.90;;;25.20;1.60;;;;;;2612513;54;20403;-79
2022/05/10 08:08:29;;;;;;;7.60;7.00;;;25.40;1.00;;;;;;2612405;54;20364;-76
2022/05/10 08:10:56;;;;;;;8.07;7.57;;;25.70;1.00;;;;;;2611388;54;20407;-76
2022/05/10 08:13:25;;;;;;;7.57;6.97;;;25.60;1.00;;;;;;2611920;54;20471;-79
2022/05/10 08:15:52;;;;;;;7.53;6.93;;;25.90;1.00;;;;;;2611720;54;20424;-81
2022/05/10 08:18:19;;;;;;;7.67;6.97;;;25.60;1.00;;;;;;2613074;47;20410;-80
2022/05/10 08:20:46;;;;;;;10.83;6.73;;;25.40;1.00;;;;;;2611790;54;20395;-80
2022/05/10 08:23:23;;;;;;;6.93;6.30;;;25.60;1.00;;;;;;2612509;54;20395;-81
2022/05/10 08:25:54;;;;;;;7.23;6.73;;;25.80;1.00;;;;;;2613050;54;20398;-82
2022/05/10 08:28:22;;;;;;;7.30;6.70;;;26.00;1.00;;;;;;2613038;54;20401;-88
2022/05/10 08:30:49;;;;;;;10.90;6.70;;;26.50;1.00;;;;;;2614169;54;20400;-87
2022/05/10 08:33:19;;;;;;;9.90;6.63;;;27.00;1.00;;;;;;2615358;47;20418;-83
2022/05/10 08:35:47;;;;;;;7.17;6.67;;;26.70;1.00;;;;;;2612191;54;20392;-78
2022/05/10 08:38:13;;;;;;;7.50;7.00;;;26.80;1.00;;;;;;2611873;54;20391;-77
2022/05/10 08:40:46;;;;;;;6.70;6.20;;;26.60;1.00;;;;;;2611198;54;20403;-77
2022/05/10 08:43:21;;;;;;;6.70;6.20;;;26.80;1.00;;;;;;2610804;54;20210;-78
2022/05/10 08:45:47;;;;;;;6.57;6.07;;;26.70;1.00;;;;;;2611914;54;20506;-76
2022/05/10 08:48:13;;;;;;;7.10;6.30;;;27.10;1.00;;;;;;2611609;39;20758;-78
2022/05/10 08:50:48;;;;;;;7.07;6.37;;;27.20;1.00;;;;;;2610145;54;20401;-78
2022/05/10 08:53:17;;;;;;;6.77;6.37;;;27.30;1.00;;;;;;2611641;47;20407;-78
2022/05/10 08:55:59;;;;;;;7.30;6.80;;;27.60;1.00;;;;;;2612442;54;20443;-76
2022/05/10 08:59:06;;;;;;;6.67;6.17;;;28.00;1.00;;;;;;2611861;47;20403;-77
2022/05/10 09:01:39;;;;;;;8.47;6.27;;;28.00;1.00;;;;;;2611787;54;20434;-77
2022/05/10 09:04:17;;;;;;;6.67;6.07;;;27.90;1.00;;;;;;2611372;47;20399;-81
2022/05/10 09:07:28;;;;;;;6.87;6.30;;;27.50;1.00;;;;;;2612498;54;20403;-80
2022/05/10 09:10:23;;;;;;;6.73;6.13;;;27.30;1.00;;;;;;2611774;54;20412;-80
2022/05/10 09:12:58;;;;;;;8.17;6.50;;;27.30;1.00;;;;;;2613003;47;20437;-84
2022/05/10 09:15:27;;;;;;;6.90;6.20;;;27.40;1.00;;;;;;2612647;47;20442;-80
2022/05/10 09:17:53;;;;;;;6.70;6.20;;;27.30;1.00;;;;;;2613592;39;20795;-81
2022/05/10 09:20:20;;;;;;;9.93;6.80;;;27.00;1.00;;;;;;2613216;54;20414;-82
2022/05/10 09:22:57;;;;;;;7.00;6.33;;;26.80;1.00;;;;;;2613301;54;20174;-81
2022/05/10 09:25:43;;;;;;;6.23;5.70;;;26.70;1.00;;;;;;2614271;54;20837;-81
2022/05/10 09:28:16;;;;;;;6.43;5.93;;;26.50;1.00;;;;;;2613320;54;20432;-80
2022/05/10 09:34:45;;;;;;;7.77;6.57;;;26.30;1.00;;;;;;2614277;54;20412;-81
2022/05/10 09:36:26;;;;;;;7.27;6.67;;;26.80;1.00;;;;;;2612660;54;20538;-81
2022/05/10 09:39:11;;;;;;;12.80;7.83;;;27.70;1.00;;;;;;2613830;54;20379;-80
2022/05/10 09:41:43;;;;;;;7.40;6.67;;;27.90;1.00;;;;;;2613032;54;20523;-81
2022/05/10 09:44:27;;;;;;;14.63;7.43;;;27.40;1.00;;;;;;2613424;54;20401;-77
2022/05/10 09:47:14;;;;;;;7.53;5.53;;;27.70;1.00;;;;;;2612617;54;20430;-76
2022/05/10 09:49:40;;;;;;;10.40;6.30;;;27.70;1.00;;;;;;2611553;54;21076;-79
2022/05/10 09:52:20;;;;;;;7.37;6.77;;;27.80;1.00;;;;;;2612719;47;20451;-74
2022/05/10 09:54:50;;;;;;;6.17;5.70;;;28.10;1.00;;;;;;2613782;54;20435;-81
2022/05/10 09:57:30;;;;;;;6.07;5.67;;;28.20;1.00;;;;;;2614160;54;20388;-85
2022/05/10 09:59:56;;;;;;;6.90;6.40;;;28.50;1.00;;;;;;2613450;54;20411;-78
2022/05/10 10:02:43;;;;;;;7.30;6.80;;;28.30;1.00;;;;;;2612592;47;20431;-76
2022/05/10 10:05:21;;;;;;;7.70;6.93;;;28.00;1.00;;;;;;2612218;47;20408;-73
2022/05/10 10:07:56;;;;;;;6.83;6.17;;;28.10;1.00;;;;;;2612516;54;20543;-74
2022/05/10 10:10:30;;;;;;;7.00;6.30;;;28.30;1.00;;;;;;2611481;47;20400;-76
2022/05/10 10:12:56;;;;;;;6.90;6.40;;;28.50;1.00;;;;;;2612610;54;20395;-75
2022/05/10 10:15:40;;;;;;;6.80;6.40;;;27.90;1.00;;;;;;2611972;54;21217;-74
2022/05/10 10:18:09;;;;;;;6.80;6.30;;;27.60;1.00;;;;;;2613089;39;20790;-73
2022/05/10 10:20:45;;;;;;;8.87;6.87;;;27.30;1.00;;;;;;2612967;54;20380;-81
2022/05/10 10:23:33;;;;;;;7.30;6.80;;;26.80;1.00;;;;;;2613993;39;20870;-81
2022/05/10 10:26:26;;;;;;;7.33;6.73;;;26.80;1.00;;;;;;2612536;54;20406;-73
2022/05/10 10:28:58;;;;;;;7.77;7.07;;;26.50;1.00;;;;;;2611634;54;20415;-80
2022/05/10 10:31:40;;;;;;;10.10;7.30;;;26.80;1.00;;;;;;2613457;54;20411;-81
2022/05/10 10:34:35;;;;;;;7.33;6.80;;;27.30;1.00;;;;;;2614133;46;20500;-82
2022/05/10 10:37:16;;;;;;;7.87;7.20;;;27.20;1.00;;;;;;2613220;54;20392;-80
2022/05/10 10:39:58;;;;;;;8.93;7.93;;;27.30;1.00;;;;;;2613361;54;20396;-82
2022/05/10 10:42:49;;;;;;;8.23;7.53;;;27.10;1.00;;;;;;2614485;54;20387;-83
2022/05/10 10:45:16;;;;;;;9.17;7.93;;;27.30;1.00;;;;;;2613876;54;20439;-82
2022/05/10 10:47:48;;;;;;;7.63;6.87;;;27.50;1.00;;;;;;2613512;54;20392;-82
2022/05/10 10:50:26;;;;;;;8.10;7.30;;;27.00;1.00;;;;;;2612484;54;20468;-75
2022/05/10 10:52:54;;;;;;;7.10;6.50;;;26.50;1.00;;;;;;2612487;46;20411;-73
2022/05/10 10:55:26;;;;;;;7.57;6.20;;;26.30;1.00;;;;;;2614238;54;20437;-83
2022/05/10 10:58:38;;;;;;;8.47;7.73;;;26.30;1.00;;;;;;2615417;47;20426;-83
2022/05/10 11:01:10;;;;;;;7.03;6.33;;;26.00;1.00;;;;;;2612251;54;20395;-75
2022/05/10 11:04:05;;;;;;;8.90;6.53;;;25.90;1.00;;;;;;2612302;54;20376;-81
2022/05/10 11:06:52;;;;;;;6.87;6.17;;;25.80;1.00;;;;;;2614347;54;20404;-80
2022/05/10 11:09:47;;;;;;;6.90;6.40;;;25.70;1.00;;;;;;2613274;54;20401;-81
2022/05/10 11:12:46;;;;;;;6.67;6.07;;;25.50;1.00;;;;;;2612680;54;20434;-76
2022/05/10 11:15:54;;;;;;;6.97;6.40;;;25.60;1.00;;;;;;2613355;54;21332;-81
2022/05/10 11:18:38;;;;;;;6.00;5.60;;;25.70;1.00;;;;;;2612992;54;20388;-79
2022/05/10 11:21:40;;;;;;;6.60;6.00;;;25.60;1.00;;;;;;2614761;54;20408;-81
2022/05/10 11:24:25;;;;;;;5.87;5.10;;;25.50;1.00;;;;;;2614005;54;20942;-75
2022/05/10 11:27:27;;;;;;;7.53;5.53;;;25.30;1.00;;;;;;2612763;54;20422;-73
2022/05/10 11:30:18;;;;;;;6.60;6.20;;;25.20;1.00;;;;;;2612412;39;20677;-74
2022/05/10 11:32:44;;;;;;;6.63;6.13;;;25.20;1.00;;;;;;2611687;54;20502;-77
2022/05/10 11:35:30;;;;;;;7.73;5.60;;;25.40;1.00;;;;;;2613248;39;20778;-74
2022/05/10 11:38:08;;;;;;;5.77;5.47;;;26.20;1.00;;;;;;2611595;51;20433;-75
2022/05/10 11:40:45;;;;;;;8.10;5.70;;;26.80;1.00;;;;;;2615708;39;20743;-78
2022/05/10 11:43:50;;;;;;;7.00;6.30;;;27.50;1.00;;;;;;2617140;54;20398;-78
2022/05/10 11:46:41;;;;;;;11.73;6.13;;;27.40;1.00;;;;;;2618058;50;20391;-79
2022/05/10 11:49:29;;;;;;;6.13;5.43;;;27.10;1.00;;;;;;2617623;47;20663;-80
2022/05/10 11:52:12;;;;;;;6.00;5.60;;;27.00;1.00;;;;;;2616715;54;20408;-78
2022/05/10 11:54:51;;;;;;;6.17;5.57;;;26.90;1.00;;;;;;2617421;47;20395;-82
2022/05/10 11:57:42;;;;;;;6.17;5.30;;;26.80;1.00;;;;;;2618255;54;20427;-80
2022/05/10 12:00:32;;;;;;;6.60;6.10;;;26.70;1.00;;;;;;2612871;39;20891;-75
2022/05/10 12:02:59;;;;;;;6.90;6.13;;;26.70;1.00;;;;;;2611743;39;20893;-73
2022/05/10 12:05:35;;;;;;;6.73;6.10;;;26.70;1.00;;;;;;2611867;54;20516;-76
2022/05/10 12:08:05;;;;;;;7.00;6.40;;;26.90;1.00;;;;;;2612173;54;20411;-76
2022/05/10 12:10:36;;;;;;;6.87;6.37;;;27.30;1.00;;;;;;2614422;39;20535;-81
2022/05/10 12:13:09;;;;;;;6.47;5.97;;;27.50;1.00;;;;;;2615253;54;21324;-81
2022/05/10 12:21:49;;;;;;;9.50;8.60;;;27.40;1.00;;;;;;2611031;54;20404;-74
2022/05/10 12:24:24;;;;;;;6.60;6.20;;;27.40;1.00;;;;;;2610978;54;20418;-76
2022/05/10 12:27:16;;;;;;;7.30;6.60;;;27.60;1.00;;;;;;2611052;54;20403;-75
2022/05/10 12:29:41;;;;;;;7.10;6.50;;;27.50;1.00;;;;;;2610812;39;20810;-76
2022/05/10 12:32:41;;;;;;;10.43;6.47;;;27.50;1.00;;;;;;2611564;47;20395;-74
2022/05/10 12:35:33;;;;;;;8.20;6.33;;;27.40;1.00;;;;;;2610519;54;20146;-72
2022/05/10 12:38:00;;;;;;;5.83;5.33;;;27.20;1.00;;;;;;2611465;54;20442;-73
2022/05/10 12:40:34;;;;;;;7.10;6.40;;;27.00;1.00;;;;;;2611607;54;20410;-73
2022/05/10 12:43:15;;;;;;;6.30;5.90;;;27.00;1.00;;;;;;2612328;46;20433;-73
2022/05/10 12:46:04;;;;;;;6.90;6.20;;;27.10;1.00;;;;;;2611665;54;20554;-74
2022/05/10 12:48:52;;;;;;;7.90;6.50;;;26.90;1.00;;;;;;2614075;54;20403;-85
2022/05/10 12:51:42;;;;;;;7.27;6.70;;;26.80;1.00;;;;;;2622368;54;20396;-84
2022/05/10 12:54:21;;;;;;;9.90;7.40;;;26.60;1.00;;;;;;2616658;39;20774;-78
2022/05/10 12:57:21;;;;;;;7.20;6.70;;;26.60;1.00;;;;;;2612844;46;20451;-78
2022/05/10 13:00:02;;;;;;;7.97;7.37;;;26.60;1.00;;;;;;2613761;54;20392;-77
2022/05/10 13:02:30;;;;;;;7.23;6.63;;;26.50;1.00;;;;;;2616135;47;20380;-79
2022/05/10 13:05:01;;;;;;;6.13;5.53;;;26.50;1.00;;;;;;2615490;54;20386;-80
2022/05/10 13:07:45;;;;;;;7.50;7.00;;;26.50;1.00;;;;;;2616946;54;20410;-82
2022/05/10 13:10:16;;;;;;;7.20;6.70;;;26.50;1.00;;;;;;2615969;54;20398;-78
2022/05/10 13:12:57;;;;;;;8.33;7.17;;;26.50;1.00;;;;;;2616962;54;20414;-82
2022/05/10 13:15:24;;;;;;;7.03;6.37;;;26.40;1.00;;;;;;2614036;54;20402;-78
2022/05/10 13:17:54;;;;;;;10.57;6.70;;;26.40;1.00;;;;;;2613920;54;20399;-78
2022/05/10 13:20:23;;;;;;;7.87;6.73;;;26.30;1.00;;;;;;2613580;39;20765;-75
2022/05/10 13:22:59;;;;;;;8.57;7.70;;;26.10;1.00;;;;;;2612921;54;20534;-76
2022/05/10 13:25:33;;;;;;;7.37;6.77;;;25.90;1.00;;;;;;2613387;54;20391;-80
2022/05/10 13:28:18;;;;;;;12.77;7.57;;;25.90;1.00;;;;;;2613673;54;20491;-81
2022/05/10 13:30:50;;;;;;;7.87;7.10;;;25.90;1.00;;;;;;2613771;54;20419;-82